Time;durP1;ratioP1;P1;durP2;ratioP2;P2;SDS_P1;SDS_P2;PMS_P1;PMS_P2;Temp;Humidity;BMP_temperature;BMP_pressure;BME280_temperature;BME280_humidity;BME280_pressure;Samples;Min_cycle;Max_cycle;Signal;HPM_P1;HPM_P2
2022/11/21 00:02:24;;;;;;;2.42;1.55;;;;;;;11.81;64.74;92586.63;5077776;28;20043;-74
2022/11/21 00:04:49;;;;;;;3.47;2.20;;;;;;;11.80;64.40;92592.28;5077985;28;20181;-76
2022/11/21 00:07:15;;;;;;;3.08;2.60;;;;;;;11.77;64.81;92582.34;5077514;28;20029;-75
2022/11/21 00:09:40;;;;;;;2.38;1.98;;;;;;;11.70;64.59;92540.34;5078293;28;20032;-75
2022/11/21 00:12:05;;;;;;;2.40;2.20;;;;;;;11.83;64.43;92570.28;5079584;28;20035;-75
2022/11/21 00:14:32;;;;;;;3.08;2.22;;;;;;;11.78;65.20;92565.25;5079141;28;20084;-75
2022/11/21 00:16:58;;;;;;;3.00;1.92;;;;;;;11.64;65.27;92514.34;5078193;28;20114;-76
2022/11/21 00:19:23;;;;;;;2.55;1.85;;;;;;;11.60;65.86;92546.22;5076930;28;20052;-75
2022/11/21 00:21:48;;;;;;;3.15;2.38;;;;;;;11.59;65.57;92534.03;5079004;28;20052;-75
2022/11/21 00:24:14;;;;;;;5.53;2.50;;;;;;;11.47;65.32;92483.56;5078189;28;20033;-75
2022/11/21 00:26:39;;;;;;;4.03;2.40;;;;;;;11.71;65.10;92509.94;5079672;28;20068;-75
2022/11/21 00:29:05;;;;;;;3.83;2.72;;;;;;;11.66;64.87;92526.19;5078519;28;20041;-74
2022/11/21 00:31:30;;;;;;;5.15;2.53;;;;;;;11.84;65.28;92545.94;5077577;28;20028;-75
2022/11/21 00:33:55;;;;;;;3.20;2.03;;;;;;;11.82;65.38;92542.09;5076809;28;20036;-75
2022/11/21 00:36:21;;;;;;;3.10;2.55;;;;;;;11.69;64.87;92538.78;5077292;28;20031;-75
2022/11/21 00:38:46;;;;;;;3.03;2.28;;;;;;;11.80;65.10;92517.69;5078265;28;20022;-75
2022/11/21 00:41:12;;;;;;;4.47;3.05;;;;;;;11.69;65.72;92522.03;5077398;28;20515;-76
2022/11/21 00:43:37;;;;;;;4.82;3.50;;;;;;;11.42;66.07;92497.13;5078101;28;20079;-75
2022/11/21 00:46:03;;;;;;;3.10;2.80;;;;;;;11.55;66.30;92549.16;5077992;28;20036;-75
2022/11/21 00:48:29;;;;;;;9.65;2.90;;;;;;;11.61;66.75;92542.44;5076845;28;20493;-75
2022/11/21 00:50:55;;;;;;;2.90;2.53;;;;;;;11.66;66.27;92528.84;5093658;28;20047;-74
2022/11/21 00:53:20;;;;;;;3.78;2.50;;;;;;;11.71;66.23;92506.50;5077053;28;20032;-76
2022/11/21 00:55:46;;;;;;;4.18;2.72;;;;;;;11.65;66.03;92521.19;5079363;28;20056;-75
2022/11/21 00:58:11;;;;;;;4.13;3.20;;;;;;;11.40;66.97;92520.66;5079459;28;20089;-75
2022/11/21 01:00:36;;;;;;;6.18;2.70;;;;;;;11.29;66.95;92519.69;5080248;28;20081;-75
2022/11/21 01:03:02;;;;;;;5.35;2.30;;;;;;;11.34;67.04;92519.41;5076593;28;20060;-75
2022/11/21 01:05:27;;;;;;;4.80;3.17;;;;;;;10.93;67.98;92460.38;5077191;28;20032;-75
2022/11/21 01:07:52;;;;;;;6.20;3.17;;;;;;;10.55;69.80;92486.88;5076482;28;20059;-74
2022/11/21 01:10:18;;;;;;;5.28;3.50;;;;;;;10.84;69.60;92475.00;5076542;28;20035;-75
2022/11/21 01:12:44;;;;;;;5.13;2.13;;;;;;;10.76;68.46;92482.03;5076322;28;20037;-75
2022/11/21 01:15:09;;;;;;;4.28;2.40;;;;;;;10.25;70.19;92473.97;5078867;28;20020;-74
2022/11/21 01:17:35;;;;;;;7.25;2.83;;;;;;;10.42;70.55;92504.00;5077334;28;20045;-75
2022/11/21 01:20:00;;;;;;;4.00;3.22;;;;;;;9.65;73.22;92461.81;5086762;28;20163;-75
2022/11/21 01:22:26;;;;;;;5.32;3.08;;;;;;;10.01;72.33;92484.75;5078580;28;20046;-75
2022/11/21 01:24:51;;;;;;;3.90;2.72;;;;;;;10.11;71.97;92496.78;5078252;28;20040;-74
2022/11/21 01:27:16;;;;;;;3.70;2.85;;;;;;;9.96;72.58;92482.34;5077275;28;20055;-75
2022/11/21 01:29:42;;;;;;;4.32;2.53;;;;;;;10.00;72.56;92501.81;5079587;28;20063;-74
2022/11/21 01:32:07;;;;;;;4.22;2.45;;;;;;;9.78;73.94;92489.09;5080160;28;20165;-74
2022/11/21 01:34:32;;;;;;;4.18;3.13;;;;;;;9.70;73.87;92468.75;5074219;28;20032;-75
2022/11/21 01:36:58;;;;;;;4.90;2.95;;;;;;;9.51;75.51;92492.50;5079831;28;20047;-74
2022/11/21 01:39:23;;;;;;;5.63;4.47;;;;;;;9.67;75.10;92511.94;5081324;28;20054;-75
2022/11/21 01:41:49;;;;;;;7.75;3.15;;;;;;;9.81;74.83;92494.50;5076892;28;20710;-74
2022/11/21 01:44:20;;;;;;;5.18;3.78;;;;;;;9.69;74.71;92470.66;5076105;28;20492;-75
2022/11/21 01:46:47;;;;;;;7.28;3.63;;;;;;;9.77;74.59;92479.59;5078846;28;20036;-75
2022/11/21 01:49:12;;;;;;;5.78;4.10;;;;;;;10.00;73.89;92493.06;5075013;28;20040;-75
2022/11/21 01:51:47;;;;;;;5.05;4.13;;;;;;;10.16;73.08;92507.91;5076301;28;20036;-75
2022/11/21 01:54:22;;;;;;;6.35;3.80;;;;;;;9.88;72.95;92475.31;5078044;28;20471;-75
2022/11/21 01:57:06;;;;;;;5.40;3.90;;;;;;;9.91;73.50;92482.59;4957138;28;20101;-74
2022/11/21 01:59:44;;;;;;;5.97;3.67;;;;;;;9.82;73.47;92479.34;4956886;28;20039;-75
2022/11/21 02:02:12;;;;;;;5.68;4.25;;;;;;;9.98;73.46;92480.13;4959107;28;20035;-74
2022/11/21 02:04:41;;;;;;;4.43;3.15;;;;;;;9.95;73.30;92496.75;4954447;28;20035;-74
2022/11/21 02:07:07;;;;;;;6.07;3.35;;;;;;;10.15;72.47;92477.16;4955822;28;20082;-75
2022/11/21 02:09:35;;;;;;;6.50;3.58;;;;;;;10.09;71.79;92483.81;4959264;28;20027;-75
2022/11/21 02:12:08;;;;;;;4.57;2.65;;;;;;;9.93;73.04;92475.06;4950084;28;20057;-74
2022/11/21 02:14:37;;;;;;;3.15;2.30;;;;;;;10.06;72.33;92476.53;5068674;28;20495;-74
2022/11/21 02:17:06;;;;;;;4.28;1.60;;;;;;;9.58;70.95;92397.16;5075897;28;20415;-74
2022/11/21 02:19:50;;;;;;;4.75;1.40;;;;;;;10.01;71.82;92441.50;5077867;28;20109;-74
2022/11/21 02:22:26;;;;;;;1.95;1.30;;;;;;;10.07;69.96;92448.88;5074050;28;20036;-74
2022/11/21 02:25:07;;;;;;;1.38;1.08;;;;;;;10.26;69.09;92464.13;5073639;28;20052;-75
2022/11/21 02:27:34;;;;;;;24.48;8.32;;;;;;;10.29;69.75;92474.84;5078517;28;20314;-74
2022/11/21 02:30:02;;;;;;;12.10;4.80;;;;;;;10.28;70.65;92457.34;5078416;28;20039;-74
2022/11/21 02:32:33;;;;;;;2.30;1.30;;;;;;;10.38;69.89;92450.78;5077188;28;20028;-77
2022/11/21 02:34:59;;;;;;;3.40;1.20;;;;;;;10.47;69.02;92458.56;5078292;28;20510;-76
2022/11/21 02:37:24;;;;;;;2.70;1.10;;;;;;;10.37;66.58;92451.13;5075746;28;20096;-76
2022/11/21 02:39:49;;;;;;;4.50;0.70;;;;;;;10.26;64.75;92448.97;5074195;28;20066;-78
2022/11/21 02:42:26;;;;;;;8.63;1.00;;;;;;;10.38;66.08;92448.13;5079938;28;20116;-75
2022/11/21 02:45:05;;;;;;;1.88;0.90;;;;;;;10.26;63.74;92427.72;5077094;28;20048;-75
2022/11/21 02:47:33;;;;;;;1.08;0.90;;;;;;;10.18;65.13;92383.47;5076161;28;20028;-75
2022/11/21 02:50:12;;;;;;;1.75;1.08;;;;;;;10.28;64.48;92420.16;5080231;28;20037;-75
2022/11/21 02:52:37;;;;;;;1.15;0.90;;;;;;;10.28;63.67;92414.84;5077076;28;20047;-75
2022/11/21 02:55:03;;;;;;;1.45;1.27;;;;;;;9.96;68.45;92423.94;5072767;28;20512;-76
2022/11/21 02:57:29;;;;;;;4.28;1.15;;;;;;;9.82;70.59;92397.03;5081513;28;20452;-75
2022/11/21 02:59:54;;;;;;;3.53;2.25;;;;;;;9.59;72.93;92401.34;5083643;28;20099;-76
2022/11/21 03:02:19;;;;;;;4.57;2.75;;;;;;;9.48;73.20;92381.75;5083852;28;20106;-76
2022/11/21 03:04:45;;;;;;;7.05;2.63;;;;;;;9.34;73.67;92361.69;5079355;28;20032;-76
2022/11/21 03:07:10;;;;;;;3.15;2.20;;;;;;;9.18;74.43;92373.38;5079803;28;20556;-75
2022/11/21 03:09:36;;;;;;;7.25;2.00;;;;;;;9.53;72.09;92411.47;5080548;28;20032;-75
2022/11/21 03:12:08;;;;;;;2.88;1.30;;;;;;;9.73;72.16;92415.00;5081938;28;20107;-77
2022/11/21 03:14:35;;;;;;;3.95;1.70;;;;;;;9.89;71.48;92419.19;5080548;28;20041;-76
2022/11/21 03:17:00;;;;;;;3.70;1.52;;;;;;;9.78;70.57;92380.25;5079087;28;20068;-76
2022/11/21 03:19:26;;;;;;;2.50;1.30;;;;;;;10.18;70.00;92404.72;5079626;28;20078;-75
2022/11/21 03:21:51;;;;;;;3.95;1.52;;;;;;;10.14;69.32;92403.09;5079534;28;20600;-74
2022/11/21 03:24:17;;;;;;;3.33;1.48;;;;;;;10.18;68.87;92417.22;5080104;28;20043;-76
2022/11/21 03:26:42;;;;;;;1.98;1.30;;;;;;;10.15;68.90;92405.41;5079532;28;20024;-75
2022/11/21 03:29:08;;;;;;;3.58;1.48;;;;;;;10.02;68.00;92380.06;5080470;28;20051;-74
2022/11/21 03:31:33;;;;;;;4.80;1.02;;;;;;;9.97;65.42;92393.59;5077576;28;20032;-76
2022/11/21 03:33:59;;;;;;;2.53;0.90;;;;;;;10.30;66.91;92423.25;5078824;28;20032;-74
2022/11/21 03:36:24;;;;;;;1.30;0.90;;;;;;;10.33;66.76;92395.97;5079792;28;20020;-76
2022/11/21 03:38:49;;;;;;;4.05;1.20;;;;;;;10.41;65.92;92381.00;5082522;28;20607;-76
2022/11/21 03:41:30;;;;;;;3.00;1.10;;;;;;;10.35;65.85;92400.94;5081387;28;20032;-76
2022/11/21 03:43:56;;;;;;;1.33;1.00;;;;;;;10.42;63.06;92403.00;5085042;28;20067;-75
2022/11/21 03:46:22;;;;;;;2.22;1.17;;;;;;;10.28;64.01;92387.50;5078368;28;20041;-75
2022/11/21 03:48:47;;;;;;;1.83;1.20;;;;;;;10.36;65.75;92393.75;5080270;28;20116;-76
2022/11/21 03:51:13;;;;;;;3.58;1.10;;;;;;;10.18;65.78;92388.00;5080109;28;20051;-75
2022/11/21 03:53:38;;;;;;;1.17;0.90;;;;;;;10.16;65.66;92342.44;5079815;28;20035;-75
2022/11/21 03:56:04;;;;;;;2.85;1.10;;;;;;;10.49;63.23;92372.06;5075332;28;20033;-77
2022/11/21 03:58:30;;;;;;;2.97;1.10;;;;;;;10.57;63.05;92365.78;5079513;28;20547;-76
2022/11/21 04:00:55;;;;;;;1.27;0.75;;;;;;;10.48;60.11;92359.09;5086894;28;20056;-76
2022/11/21 04:03:20;;;;;;;5.38;1.00;;;;;;;10.64;60.63;92341.25;5080690;28;20038;-75
2022/11/21 04:05:46;;;;;;;1.95;1.85;;;;;;;10.65;59.92;92337.47;5078198;28;20116;-75
2022/11/21 04:08:11;;;;;;;1.58;0.70;;;;;;;10.55;59.71;92314.88;5076208;28;20033;-76
2022/11/21 04:10:37;;;;;;;3.47;0.93;;;;;;;10.75;60.09;92331.59;5077519;28;20029;-75
2022/11/21 04:13:02;;;;;;;3.30;1.30;;;;;;;10.62;59.92;92327.50;5079949;28;20036;-75
2022/11/21 04:15:27;;;;;;;1.35;1.20;;;;;;;10.82;60.23;92331.72;5078109;28;20032;-75
2022/11/21 04:17:53;;;;;;;2.28;1.00;;;;;;;10.77;58.85;92324.03;5079468;28;20116;-76
2022/11/21 04:20:18;;;;;;;0.57;0.57;;;;;;;10.61;58.86;92316.09;5077118;28;20048;-75
2022/11/21 04:22:43;;;;;;;1.50;1.00;;;;;;;10.57;58.81;92298.53;5079424;28;20065;-75
2022/11/21 04:25:09;;;;;;;1.65;1.10;;;;;;;10.79;57.97;92313.03;5080873;28;20377;-75
2022/11/21 04:27:34;;;;;;;3.70;0.80;;;;;;;10.70;58.01;92311.38;5081241;28;20021;-76
2022/11/21 04:30:00;;;;;;;2.80;0.70;;;;;;;10.88;57.45;92325.00;5078369;28;20028;-75
2022/11/21 04:32:25;;;;;;;1.90;0.88;;;;;;;11.02;57.09;92313.88;5085040;28;20059;-75
2022/11/21 04:34:50;;;;;;;3.60;0.60;;;;;;;10.84;56.77;92329.50;5076935;28;20058;-75
2022/11/21 04:37:16;;;;;;;3.20;0.80;;;;;;;10.77;57.03;92316.03;5079344;28;20060;-75
2022/11/21 04:39:41;;;;;;;2.50;0.80;;;;;;;10.91;56.83;92337.59;5077853;28;20039;-75
2022/11/21 04:42:07;;;;;;;2.50;1.00;;;;;;;10.82;56.83;92318.44;5077280;28;20028;-75
2022/11/21 04:44:32;;;;;;;1.77;0.70;;;;;;;10.61;57.01;92284.19;5078092;28;20052;-75
2022/11/21 04:46:59;;;;;;;1.88;0.90;;;;;;;10.82;57.46;92315.78;5079562;28;20035;-75
2022/11/21 04:49:24;;;;;;;1.98;0.77;;;;;;;10.89;57.14;92297.31;5076751;28;20488;-76
2022/11/21 04:51:49;;;;;;;2.58;1.02;;;;;;;10.87;56.09;92339.44;5079320;28;20092;-75
2022/11/21 04:54:15;;;;;;;4.82;0.63;;;;;;;11.06;55.02;92339.41;5076102;28;20074;-75
2022/11/21 04:56:40;;;;;;;1.35;0.57;;;;;;;11.12;54.75;92367.28;5076664;28;20036;-74
2022/11/21 04:59:05;;;;;;;4.22;0.70;;;;;;;10.87;55.48;92312.84;5075389;28;20410;-75
2022/11/21 05:01:31;;;;;;;1.38;0.60;;;;;;;11.09;54.35;92377.88;5075460;28;20111;-74
2022/11/21 05:03:56;;;;;;;2.05;0.60;;;;;;;11.16;54.68;92378.00;5076390;28;20043;-75
2022/11/21 05:06:22;;;;;;;1.48;0.88;;;;;;;11.16;53.83;92367.34;5076972;28;20027;-74
2022/11/21 05:08:47;;;;;;;2.05;0.70;;;;;;;11.17;54.14;92379.53;5075823;28;20019;-74
2022/11/21 05:13:56;;;;;;;3.10;0.60;;;;;;;11.23;55.07;92402.09;5073827;28;20043;-74
2022/11/21 05:16:22;;;;;;;1.33;0.80;;;;;;;11.09;55.06;92396.50;5078858;28;20547;-76
2022/11/21 05:18:47;;;;;;;3.70;0.88;;;;;;;11.10;55.77;92388.16;5075758;28;20502;-75
2022/11/21 05:21:12;;;;;;;2.83;0.77;;;;;;;11.05;55.18;92412.38;5078569;28;20097;-77
2022/11/21 05:23:38;;;;;;;2.63;0.52;;;;;;;11.14;54.47;92422.81;5076261;28;20439;-76
2022/11/21 05:26:03;;;;;;;4.03;1.10;;;;;;;11.01;56.00;92408.09;5078367;28;20048;-76
2022/11/21 05:28:29;;;;;;;1.88;0.80;;;;;;;11.01;55.64;92429.38;5078136;28;20384;-76
2022/11/21 05:30:54;;;;;;;3.53;0.63;;;;;;;10.97;55.56;92415.22;5082634;28;20040;-75
2022/11/21 05:33:19;;;;;;;2.38;1.00;;;;;;;11.12;55.25;92433.81;5076622;28;20035;-75
2022/11/21 05:35:45;;;;;;;1.02;0.77;;;;;;;11.27;54.18;92447.41;5078300;28;20557;-76
2022/11/21 05:38:10;;;;;;;3.53;0.85;;;;;;;11.20;55.40;92428.66;5073902;28;20032;-76
2022/11/21 05:40:36;;;;;;;3.42;0.80;;;;;;;11.09;54.74;92402.59;5077338;28;20040;-75
2022/11/21 05:45:48;;;;;;;3.33;1.20;;;;;;;10.93;55.96;92428.47;5075371;28;20151;-77
2022/11/21 05:48:14;;;;;;;4.70;1.00;;;;;;;10.84;56.11;92430.56;5082749;28;20113;-76
2022/11/21 05:50:39;;;;;;;1.83;0.85;;;;;;;10.71;56.53;92455.69;5074435;28;20053;-75
2022/11/21 05:53:05;;;;;;;5.20;2.13;;;;;;;10.33;59.39;92480.22;5074559;28;20515;-76
2022/11/21 05:55:33;;;;;;;2.38;1.35;;;;;;;9.91;62.01;92477.28;5079946;28;20377;-75
2022/11/21 05:57:59;;;;;;;2.97;2.20;;;;;;;9.84;61.21;92490.38;5073844;28;20037;-76
2022/11/21 06:00:24;;;;;;;7.38;3.90;;;;;;;9.47;62.38;92507.56;5073438;28;20027;-75
2022/11/21 06:05:33;;;;;;;1.52;1.05;;;;;;;9.47;61.14;92545.50;5076968;28;20043;-75
2022/11/21 06:07:59;;;;;;;0.75;0.75;;;;;;;9.54;61.60;92528.97;5073514;28;20059;-76
2022/11/21 06:10:24;;;;;;;1.08;0.90;;;;;;;9.38;60.86;92499.75;5072668;28;20515;-76
2022/11/21 06:12:49;;;;;;;2.95;0.98;;;;;;;9.33;60.08;92527.28;5072426;28;20041;-75
2022/11/21 06:15:15;;;;;;;1.45;0.90;;;;;;;9.48;60.48;92572.81;5078252;28;20063;-76
2022/11/21 06:17:40;;;;;;;1.35;0.80;;;;;;;9.02;60.34;92543.00;5074744;28;20085;-75
2022/11/21 06:20:06;;;;;;;5.05;2.10;;;;;;;9.42;59.57;92602.22;5074653;28;20575;-75
2022/11/21 06:22:31;;;;;;;2.05;1.25;;;;;;;9.49;59.14;92577.00;5069994;28;20041;-76
2022/11/21 06:24:57;;;;;;;1.05;0.93;;;;;;;9.29;58.51;92523.75;5075251;28;20032;-75
2022/11/21 06:27:22;;;;;;;2.00;0.77;;;;;;;9.80;57.81;92623.03;5072972;28;20582;-76
2022/11/21 06:29:47;;;;;;;0.70;0.70;;;;;;;9.25;57.48;92522.09;5073633;28;20031;-76
2022/11/21 06:32:13;;;;;;;0.60;0.60;;;;;;;9.37;57.42;92612.28;5073276;28;20029;-76
2022/11/21 06:34:38;;;;;;;0.55;0.55;;;;;;;9.37;57.74;92614.94;5073943;28;20032;-75
2022/11/21 06:37:04;;;;;;;1.23;0.70;;;;;;;9.65;57.45;92636.25;5073635;28;20032;-75
2022/11/21 06:39:29;;;;;;;1.17;0.70;;;;;;;9.45;57.30;92611.38;5073768;28;20530;-76
2022/11/21 06:41:54;;;;;;;2.15;0.90;;;;;;;9.45;57.75;92606.84;5081811;28;20082;-75
2022/11/21 06:44:20;;;;;;;0.50;0.50;;;;;;;9.43;57.97;92614.41;5072130;28;20912;-75
2022/11/21 06:46:45;;;;;;;0.88;0.80;;;;;;;9.32;57.48;92644.34;5071478;28;20526;-76
2022/11/21 06:49:10;;;;;;;0.60;0.60;;;;;;;8.62;57.63;92611.03;5070044;28;20043;-75
2022/11/21 06:51:36;;;;;;;4.05;0.80;;;;;;;8.19;59.42;92608.84;5070635;28;20521;-75
2022/11/21 06:54:01;;;;;;;2.00;0.80;;;;;;;8.14;59.79;92623.06;5071553;28;20498;-75
2022/11/21 06:56:29;;;;;;;1.20;0.80;;;;;;;8.34;60.68;92685.03;5072552;28;20053;-75
2022/11/21 06:58:55;;;;;;;0.77;0.70;;;;;;;8.10;60.74;92717.50;5073599;28;20422;-75
2022/11/21 07:01:21;;;;;;;0.65;0.60;;;;;;;7.94;61.28;92721.81;5073333;28;20578;-75
2022/11/21 07:03:47;;;;;;;0.75;0.73;;;;;;;7.96;61.29;92716.97;5073449;28;20098;-76
2022/11/21 07:06:12;;;;;;;0.60;0.60;;;;;;;7.92;61.20;92716.88;5072863;28;20282;-75
2022/11/21 07:08:39;;;;;;;2.15;0.70;;;;;;;7.88;61.66;92741.63;5075932;28;20039;-75
2022/11/21 07:11:13;;;;;;;0.52;0.52;;;;;;;7.95;60.79;92726.78;5073219;28;20500;-75
2022/11/21 07:13:39;;;;;;;3.80;0.60;;;;;;;7.81;60.87;92739.50;5071979;28;20571;-75
2022/11/21 07:16:07;;;;;;;0.57;0.57;;;;;;;7.71;61.76;92745.13;5071965;28;20116;-75
2022/11/21 07:18:33;;;;;;;0.68;0.68;;;;;;;7.43;62.35;92728.97;5073790;28;20486;-75
2022/11/21 07:21:03;;;;;;;1.00;0.80;;;;;;;7.37;62.59;92695.06;5073312;28;20052;-75
2022/11/21 07:23:30;;;;;;;0.82;0.70;;;;;;;7.74;62.39;92752.44;5083664;28;20097;-76
2022/11/21 07:25:58;;;;;;;1.95;0.80;;;;;;;7.58;63.04;92744.25;5078642;28;20037;-75
2022/11/21 07:28:24;;;;;;;0.80;0.80;;;;;;;7.41;63.57;92752.28;5074629;28;20322;-75
2022/11/21 07:30:49;;;;;;;4.85;1.02;;;;;;;7.59;63.89;92780.22;5072765;28;20056;-76
2022/11/21 07:33:15;;;;;;;3.15;0.90;;;;;;;7.65;63.67;92775.53;5073860;28;20025;-75
2022/11/21 07:35:42;;;;;;;0.88;0.80;;;;;;;7.49;62.79;92762.06;5071158;28;20040;-75
2022/11/21 07:38:08;;;;;;;1.60;0.95;;;;;;;7.65;62.98;92757.78;5082156;28;20039;-75
2022/11/21 07:40:33;;;;;;;2.50;0.70;;;;;;;7.76;62.21;92770.66;5070328;28;20032;-75
2022/11/21 07:43:05;;;;;;;1.70;1.58;;;;;;;8.10;62.81;92802.25;5074319;28;20139;-75
2022/11/21 07:45:32;;;;;;;0.80;0.80;;;;;;;8.26;61.91;92799.81;5073746;28;20036;-75
2022/11/21 07:47:58;;;;;;;1.52;0.95;;;;;;;7.99;61.69;92769.28;5072923;28;20020;-75
2022/11/21 07:50:24;;;;;;;0.93;0.80;;;;;;;8.31;61.06;92805.69;5071979;28;20024;-75
2022/11/21 07:52:50;;;;;;;2.33;0.95;;;;;;;8.22;60.55;92793.59;5073142;28;20089;-75
2022/11/21 07:55:15;;;;;;;1.15;1.02;;;;;;;7.95;60.97;92784.25;5075643;28;20039;-76
2022/11/21 07:57:40;;;;;;;1.00;0.90;;;;;;;8.15;60.76;92805.47;5077355;28;20036;-75
2022/11/21 08:00:07;;;;;;;1.88;1.00;;;;;;;7.95;61.00;92778.97;5074931;28;20447;-76
2022/11/21 08:02:32;;;;;;;1.13;0.90;;;;;;;8.13;61.12;92812.94;5073098;28;20040;-74
2022/11/21 08:04:57;;;;;;;2.63;1.08;;;;;;;8.40;60.79;92835.53;5074250;28;20041;-75
2022/11/21 08:07:23;;;;;;;1.35;0.98;;;;;;;8.23;60.43;92837.50;5074790;28;20040;-75
2022/11/21 08:09:48;;;;;;;1.25;1.05;;;;;;;8.14;60.79;92834.91;5068971;28;20400;-76
2022/11/21 08:12:15;;;;;;;1.42;1.08;;;;;;;8.08;60.57;92842.28;5073566;28;20020;-75
2022/11/21 08:14:40;;;;;;;1.10;1.00;;;;;;;8.04;60.44;92825.47;5072001;28;20033;-76
2022/11/21 08:17:06;;;;;;;0.90;0.90;;;;;;;8.04;60.87;92843.22;5073779;28;20043;-76
2022/11/21 08:19:32;;;;;;;1.17;1.08;;;;;;;7.92;60.46;92853.75;5074408;28;20043;-77
2022/11/21 08:21:57;;;;;;;1.15;1.00;;;;;;;7.80;60.59;92813.94;5076297;28;20101;-75
2022/11/21 08:24:23;;;;;;;0.93;0.80;;;;;;;8.10;61.08;92861.28;5072988;28;20107;-74
2022/11/21 08:26:48;;;;;;;2.25;1.05;;;;;;;7.83;60.72;92850.34;5070361;28;22418;-75
2022/11/21 08:29:15;;;;;;;0.80;0.80;;;;;;;7.63;60.96;92828.75;5071690;28;20043;-75
2022/11/21 08:31:41;;;;;;;1.65;0.90;;;;;;;7.49;61.49;92843.28;5073241;28;20058;-75
2022/11/21 08:34:07;;;;;;;0.70;0.70;;;;;;;7.69;61.33;92843.38;5072906;28;20032;-75
2022/11/21 08:36:32;;;;;;;1.15;0.75;;;;;;;7.83;61.52;92866.22;5073176;28;20158;-75
2022/11/21 08:38:59;;;;;;;1.85;1.00;;;;;;;7.83;61.62;92866.22;5073556;28;20070;-75
2022/11/21 08:44:19;;;;;;;0.90;0.90;;;;;;;7.95;62.08;92861.03;5059522;28;20055;-75
2022/11/21 08:46:44;;;;;;;2.05;1.25;;;;;;;7.91;60.46;92857.47;5087892;28;20389;-75
2022/11/21 08:49:10;;;;;;;22.27;12.10;;;;;;;8.08;60.65;92866.09;5087557;28;20044;-75
2022/11/21 08:51:35;;;;;;;3.15;2.15;;;;;;;8.19;60.97;92878.97;5064101;28;20051;-75
2022/11/21 08:54:01;;;;;;;0.90;0.90;;;;;;;7.90;59.27;92838.16;5071029;28;20066;-76
2022/11/21 08:56:27;;;;;;;1.90;1.17;;;;;;;7.98;60.14;92863.03;5073430;28;20037;-76
2022/11/21 08:58:52;;;;;;;3.03;1.80;;;;;;;8.15;59.68;92858.44;5074627;28;20516;-75
2022/11/21 09:01:18;;;;;;;1.60;1.20;;;;;;;8.00;60.37;92877.53;5075287;28;20043;-75
2022/11/21 09:03:44;;;;;;;5.63;2.40;;;;;;;8.30;59.68;92882.81;5074230;28;20041;-75
2022/11/21 09:06:09;;;;;;;2.85;1.13;;;;;;;7.73;60.58;92884.00;5073837;28;20027;-75
2022/11/21 09:08:35;;;;;;;1.92;1.38;;;;;;;7.84;60.79;92862.47;5073093;28;20047;-75
2022/11/21 09:11:08;;;;;;;1.73;1.30;;;;;;;7.82;60.88;92840.88;5073471;28;20060;-75
2022/11/21 09:13:35;;;;;;;3.15;1.40;;;;;;;8.07;61.12;92872.47;5075349;28;20040;-75
2022/11/21 09:18:46;;;;;;;2.88;2.17;;;;;;;8.43;61.25;92893.16;5073799;28;20040;-76
2022/11/21 09:21:15;;;;;;;2.95;1.80;;;;;;;8.51;60.54;92897.63;5076362;28;20228;-76
2022/11/21 09:23:40;;;;;;;4.55;2.05;;;;;;;8.53;60.24;92884.84;5074006;28;20083;-75
2022/11/21 09:26:06;;;;;;;4.22;2.78;;;;;;;8.59;59.51;92888.09;5073485;28;20064;-76
2022/11/21 09:28:31;;;;;;;4.00;2.45;;;;;;;8.50;58.83;92892.69;5078415;28;20040;-75
2022/11/21 09:30:57;;;;;;;5.55;1.80;;;;;;;8.18;58.60;92877.41;5074424;28;20040;-75
2022/11/21 09:33:22;;;;;;;3.33;2.38;;;;;;;8.07;59.86;92883.06;5074302;28;20031;-76
2022/11/21 09:35:47;;;;;;;4.38;2.00;;;;;;;8.27;60.03;92897.47;5075735;28;20119;-76
2022/11/21 09:38:13;;;;;;;3.53;2.20;;;;;;;8.09;59.72;92902.09;5074484;28;20027;-75
2022/11/21 09:40:43;;;;;;;2.42;1.90;;;;;;;7.57;60.51;92895.41;5073917;28;20086;-76
2022/11/21 09:43:37;;;;;;;3.20;2.30;;;;;;;7.34;62.21;92913.34;5072396;28;20036;-74
2022/11/21 09:46:09;;;;;;;7.47;2.85;;;;;;;7.66;62.35;92899.59;5075281;28;20031;-74
2022/11/21 09:49:00;;;;;;;3.38;1.80;;;;;;;7.50;62.23;92893.25;5074554;28;20036;-76
2022/11/21 09:51:29;;;;;;;2.80;2.05;;;;;;;7.45;62.75;92882.81;5075010;28;20449;-75
2022/11/21 09:54:10;;;;;;;4.03;2.80;;;;;;;7.65;61.95;92898.03;5072652;28;20030;-75
2022/11/21 09:56:39;;;;;;;3.67;2.20;;;;;;;7.61;62.93;92906.91;5076376;28;20032;-75
2022/11/21 09:59:13;;;;;;;4.30;2.45;;;;;;;7.80;61.99;92911.84;5073797;28;20044;-76
2022/11/21 10:01:39;;;;;;;3.67;2.35;;;;;;;7.46;60.25;92905.56;5074226;28;20040;-75
2022/11/21 10:04:04;;;;;;;3.03;2.38;;;;;;;7.51;60.02;92928.41;5071345;28;20046;-75
2022/11/21 10:06:51;;;;;;;3.15;2.30;;;;;;;7.61;61.15;92934.16;5074256;28;20519;-76
2022/11/21 10:09:47;;;;;;;4.15;2.65;;;;;;;7.67;60.67;92919.66;5074528;28;20041;-75
2022/11/21 10:12:49;;;;;;;4.35;2.35;;;;;;;7.64;59.93;92927.44;5075565;28;20050;-75
2022/11/21 10:15:33;;;;;;;2.53;2.30;;;;;;;7.47;60.23;92928.28;5076697;28;20363;-74
2022/11/21 10:18:07;;;;;;;2.20;2.00;;;;;;;7.57;60.84;92929.81;5090870;28;20502;-76
2022/11/21 10:20:33;;;;;;;1.50;1.40;;;;;;;7.50;59.76;92943.50;5075376;28;20052;-74
2022/11/21 10:23:08;;;;;;;3.10;1.65;;;;;;;7.53;60.46;92939.47;5073510;28;20494;-77
2022/11/21 10:25:38;;;;;;;3.35;1.95;;;;;;;7.60;60.27;92937.09;5074670;28;20028;-76
2022/11/21 10:28:32;;;;;;;2.22;1.38;;;;;;;7.60;59.23;92947.69;5073994;28;20040;-74
2022/11/21 10:30:59;;;;;;;3.45;1.58;;;;;;;7.50;58.95;92954.09;5066143;28;20043;-74
2022/11/21 10:33:32;;;;;;;1.67;1.52;;;;;;;7.12;59.14;92938.13;5077254;28;20016;-75
2022/11/21 10:36:04;;;;;;;4.68;2.75;;;;;;;7.22;58.86;92937.03;5077137;28;20054;-75
2022/11/21 10:38:37;;;;;;;2.35;1.98;;;;;;;7.27;59.89;92958.00;5075718;28;20511;-76
2022/11/21 10:41:12;;;;;;;2.42;1.90;;;;;;;7.38;59.98;92945.25;5078565;28;20041;-75
2022/11/21 10:46:21;;;;;;;5.53;2.67;;;;;;;7.53;59.20;92947.41;5083340;28;19954;-75
2022/11/21 10:49:00;;;;;;;3.13;1.98;;;;;;;7.55;58.87;92948.63;5079350;28;20036;-76
2022/11/21 10:52:03;;;;;;;2.40;2.05;;;;;;;7.54;58.76;92957.66;5079733;28;20059;-75
2022/11/21 10:54:31;;;;;;;2.17;1.85;;;;;;;7.40;59.04;92962.34;5052695;28;20599;-76
2022/11/21 10:56:59;;;;;;;2.42;1.83;;;;;;;7.58;59.50;92952.53;5079436;28;20020;-76
2022/11/21 10:59:28;;;;;;;3.17;1.80;;;;;;;7.57;59.40;92958.91;5077202;28;20029;-75
2022/11/21 11:02:19;;;;;;;2.55;1.88;;;;;;;7.61;59.41;92965.91;5075086;28;20036;-76
2022/11/21 11:04:44;;;;;;;3.97;2.90;;;;;;;7.54;59.55;92973.53;5074774;28;20276;-76
2022/11/21 11:07:27;;;;;;;4.40;2.10;;;;;;;7.39;59.91;92968.72;5076403;28;20051;-76
2022/11/21 11:10:14;;;;;;;4.90;2.30;;;;;;;7.36;60.18;92974.66;5090204;28;20059;-76
2022/11/21 11:15:26;;;;;;;5.95;2.17;;;;;;;7.13;60.49;92970.63;5074573;28;20038;-76
2022/11/21 11:17:58;;;;;;;7.07;3.70;;;;;;;7.03;60.59;92941.84;5081201;28;20039;-77
2022/11/21 11:20:43;;;;;;;8.48;4.60;;;;;;;7.29;60.67;92958.47;5081317;28;20048;-76
2022/11/21 11:23:21;;;;;;;6.25;2.20;;;;;;;7.15;60.94;92953.34;5080590;28;20042;-75
2022/11/21 11:25:55;;;;;;;1.95;1.48;;;;;;;6.84;61.48;92935.00;5082261;28;20032;-75
2022/11/21 11:28:22;;;;;;;2.15;1.48;;;;;;;6.96;61.08;92936.25;5079736;28;20044;-75
2022/11/21 11:30:50;;;;;;;2.63;2.22;;;;;;;7.05;60.94;92945.72;5079628;28;20056;-75
2022/11/21 11:33:34;;;;;;;9.07;5.40;;;;;;;7.23;61.01;92957.88;5081178;28;20016;-76
2022/11/21 11:36:13;;;;;;;2.33;1.67;;;;;;;7.19;60.87;92950.88;5080729;28;20140;-76
2022/11/21 11:38:42;;;;;;;7.05;5.28;;;;;;;7.30;60.85;92954.75;5094687;28;20051;-75
2022/11/21 11:47:58;;;;;;;2.25;1.90;;;;;;;7.08;61.27;92949.63;5061233;28;20110;-76
2022/11/21 11:50:34;;;;;;;3.13;2.13;;;;;;;6.99;61.63;92938.28;5061355;28;20037;-76
2022/11/21 11:53:10;;;;;;;5.25;2.20;;;;;;;7.29;61.71;92947.88;5073206;28;20028;-75
2022/11/21 11:55:54;;;;;;;2.85;2.08;;;;;;;7.39;61.08;92946.78;5075392;28;20068;-75
2022/11/21 11:58:26;;;;;;;2.55;2.03;;;;;;;7.25;60.82;92945.09;5081505;28;20108;-75
2022/11/21 12:01:10;;;;;;;2.05;1.70;;;;;;;7.17;60.76;92951.19;5084649;28;20482;-76
2022/11/21 12:03:49;;;;;;;2.67;2.03;;;;;;;7.22;61.02;92952.88;5082414;28;20028;-76
2022/11/21 12:06:20;;;;;;;5.05;2.08;;;;;;;7.14;60.40;92956.31;5097764;28;20045;-76
2022/11/21 12:08:51;;;;;;;2.33;1.83;;;;;;;6.92;60.19;92953.81;5079546;28;20060;-76
2022/11/21 12:17:26;;;;;;;5.20;2.27;;;;;;;6.94;60.32;92952.44;5075554;28;20044;-76